Latest Weather Observations for Wangaratta

IDV60801

Issued at 6:32 am EDT Wednesday 7 December 2016 (issued every 30 minutes, with the page automatically refreshed every 10 minutes)

About weather observations | Map of weather stations | Latest weather observations for VIC | Other Formats
Station Details ID: 082138 Name: WANGARATTA AERO Lat: -36.42 Lon: 146.31 Height: 152.6 m
Data from the previous 72 hours. | See also: Recent months at Wangaratta
Date/Time
EDT
Temp
°C
App
Temp
°C
Dew
Point
°C
Rel
Hum
%
Delta-T
°C
Wind Press
QNH
hPa
Press
MSL
hPa
Rain since
9am
mm
Dir  Spd
km/h
Gust
km/h
Spd
kts
Gust
kts
07/06:30am 9.0 8.7 8.6 97 0.2 CALM 0 0 0 0 1014.3 1013.8 0.0
07/06:00am 7.8 7.2 7.2 96 0.3 CALM 0 0 0 0 1014.1 1013.6 0.0
07/05:30am 8.3 7.7 7.4 94 0.4 CALM 0 6 0 3 1013.7 1013.2 0.0
07/05:16am 8.5 7.9 7.6 94 0.4 CALM 0 7 0 4 1013.6 1013.1 0.0
07/05:00am 8.1 6.3 7.0 93 0.5 WSW 6 9 3 5 1013.3 1012.8 0.0
07/04:57am 8.1 6.3 7.0 93 0.5 SW 6 9 3 5 1013.4 1012.9 0.0
07/04:30am 8.7 8.1 7.5 92 0.6 CALM 0 2 0 1 1013.0 1012.5 0.0
07/04:00am 9.3 8.8 7.7 90 0.8 CALM 0 0 0 0 1012.7 1012.2 0.0
07/03:30am 10.4 10.1 8.5 88 0.9 CALM 0 0 0 0 1012.6 1012.1 0.0
07/03:00am 10.7 10.4 8.5 86 1.1 CALM 0 0 0 0 1012.7 1012.2 0.0
07/02:30am 11.1 9.5 8.1 82 1.5 S 6 7 3 4 1012.7 1012.2 0.0
07/02:00am 11.2 10.6 8.9 86 1.2 S 2 7 1 4 1013.0 1012.5 0.0
07/01:30am 11.4 9.7 8.3 81 1.5 SSW 7 9 4 5 1013.0 1012.5 0.0
07/01:00am 11.5 9.1 8.7 83 1.4 S 11 11 6 6 1013.1 1012.6 0.0
07/12:30am 12.8 11.0 9.3 79 1.8 S 9 11 5 6 1013.3 1012.8 0.0
07/12:00am 13.1 11.6 9.0 76 2.1 SSW 7 9 4 5 1013.3 1012.8 0.0
 
Date/Time
EDT
Temp
°C
App
Temp
°C
Dew
Point
°C
Rel
Hum
%
Delta-T
°C
Wind Press
QNH
hPa
Press
MSL
hPa
Rain since
9am
mm
Dir  Spd
km/h
Gust
km/h
Spd
kts
Gust
kts
06/11:30pm 13.5 11.8 8.4 71 2.6 SSW 7 11 4 6 1013.5 1013.0 0.0
06/11:00pm 15.3 14.0 9.2 67 3.2 SSW 6 7 3 4 1013.3 1012.8 0.0
06/10:30pm 16.4 16.3 9.3 63 3.7 CALM 0 0 0 0 1013.1 1012.6 0.0
06/10:00pm 17.3 16.7 7.6 53 4.9 CALM 0 6 0 3 1013.1 1012.6 0.0
06/09:30pm 17.8 16.0 7.2 50 5.4 W 6 7 3 4 1013.0 1012.5 0.0
06/09:00pm 17.1 14.3 6.9 51 5.1 WNW 11 13 6 7 1012.6 1012.1 0.0
06/08:30pm 20.0 17.9 6.7 42 6.8 WNW 7 9 4 5 1012.1 1011.6 0.0
06/08:00pm 22.5 19.1 5.9 34 8.4 WNW 13 17 7 9 1011.9 1011.4 0.0
06/07:30pm 24.0 19.9 4.4 28 9.8 W 15 22 8 12 1011.5 1011.1 0.0
06/07:00pm 24.2 20.2 2.9 25 10.4 WSW 13 20 7 11 1011.4 1010.9 0.0
06/06:30pm 24.4 20.4 3.1 25 10.4 WSW 13 20 7 11 1011.2 1010.7 0.0
06/06:00pm 24.6 19.1 2.1 23 10.8 WSW 20 28 11 15 1011.1 1010.6 0.0
06/05:30pm 25.2 19.8 1.3 21 11.4 WSW 19 24 10 13 1011.0 1010.5 0.0
06/05:00pm 25.1 20.1 3.7 25 10.6 WSW 19 28 10 15 1011.1 1010.6 0.0
06/04:30pm 25.1 19.8 3.1 24 10.8 WSW 20 28 11 15 1011.2 1010.7 0.0
06/04:00pm 25.5 20.9 5.7 28 10.2 WSW 19 28 10 15 1011.1 1010.6 0.0
06/03:30pm 24.9 19.6 5.2 28 10.0 WSW 22 33 12 18 1011.5 1011.1 0.0
06/03:00pm 24.6 19.6 6.4 31 9.5 SW 22 32 12 17 1011.7 1011.2 0.0
06/02:30pm 24.4 19.7 6.2 31 9.4 WSW 20 30 11 16 1011.8 1011.3 0.0
06/02:00pm 23.7 19.4 6.9 34 8.8 W 19 30 10 16 1012.1 1011.6 0.0
06/01:30pm 23.7 19.7 6.5 33 8.9 SW 17 26 9 14 1012.3 1011.8 0.0
06/01:00pm 23.9 19.6 7.1 34 8.8 W 19 24 10 13 1012.3 1011.8 0.0
06/12:30pm 22.8 18.4 6.6 35 8.4 WSW 19 28 10 15 1012.4 1011.9 0.0
06/12:00pm 22.6 18.4 7.6 38 7.9 WSW 19 24 10 13 1012.4 1011.9 0.0
06/11:30am 22.5 18.1 7.5 38 7.9 W 20 26 11 14 1012.5 1012.0 0.0
06/11:00am 22.2 17.7 6.8 37 7.9 W 20 26 11 14 1012.4 1011.9 0.0
06/10:30am 22.8 18.2 6.6 35 8.4 SW 20 26 11 14 1012.4 1011.9 0.0
06/10:00am 22.8 21.6 9.6 43 7.2 NNE 6 9 3 5 1012.6 1012.1 0.0
06/09:30am 21.3 20.4 10.5 50 5.9 NW 6 9 3 5 1012.7 1012.2 0.0
06/09:00am 20.0 18.2 9.6 51 5.6 SW 9 15 5 8 1012.6 1012.1 0.2
06/08:30am 18.9 17.0 10.5 58 4.6 SSW 11 15 6 8 1012.3 1011.8 0.2
06/08:00am 18.2 16.7 12.0 67 3.4 S 11 15 6 8 1012.4 1011.9 0.2
06/07:30am 17.4 16.8 12.3 72 2.8 S 7 11 4 6 1011.5 1011.1 0.2
06/07:00am 16.5 16.6 11.6 73 2.7 S 2 7 1 4 1011.2 1010.7 0.2
06/06:30am 15.5 14.3 11.7 78 2.1 S 9 13 5 7 1010.5 1010.0 0.2
06/06:00am 14.6 14.3 11.6 82 1.6 SW 4 9 2 5 1010.5 1010.0 0.2
06/05:30am 15.2 15.6 11.4 78 2.1 CALM 0 6 0 3 1009.7 1009.2 0.2
06/05:00am 16.2 15.3 11.4 73 2.6 SSE 7 9 4 5 1009.4 1008.9 0.2
06/04:30am 16.0 14.8 11.6 75 2.4 S 9 11 5 6 1009.4 1008.9 0.2
06/04:00am 16.5 17.1 13.2 81 1.9 S 2 6 1 3 1008.9 1008.4 0.2
06/03:30am 16.9 16.4 12.2 74 2.6 SSE 6 7 3 4 1008.7 1008.2 0.2
06/03:00am 17.0 16.4 12.3 74 2.6 WSW 7 15 4 8 1009.2 1008.7 0.2
06/02:30am 18.5 19.0 11.6 64 3.8 CALM 0 0 0 0 1009.3 1008.8 0.2
06/02:00am 18.7 17.7 12.2 66 3.6 SSW 9 13 5 7 1009.8 1009.3 0.2
06/01:30am 18.8 18.8 14.1 74 2.7 NE 7 11 4 6 1009.4 1008.9 0.2
06/01:00am 19.4 20.1 13.3 68 3.5 NW 2 7 1 4 1009.9 1009.4 0.2
06/12:30am 19.2 19.6 13.8 71 3.1 NW 4 9 2 5 1009.8 1009.3 0.2
06/12:00am 19.9 20.0 13.8 68 3.5 SW 6 13 3 7 1009.7 1009.2 0.2
 
Date/Time
EDT
Temp
°C
App
Temp
°C
Dew
Point
°C
Rel
Hum
%
Delta-T
°C
Wind Press
QNH
hPa
Press
MSL
hPa
Rain since
9am
mm
Dir  Spd
km/h
Gust
km/h
Spd
kts
Gust
kts
05/11:30pm 20.4 20.2 13.6 65 3.9 NNE 7 11 4 6 1010.0 1009.5 0.2
05/11:00pm 21.3 22.2 13.0 59 4.8 CALM 0 0 0 0 1010.8 1010.3 0.2
05/10:30pm 21.7 21.0 13.1 58 5.0 SSW 9 13 5 7 1011.4 1010.9 0.2
05/10:00pm 22.4 21.1 12.4 53 5.7 SW 11 15 6 8 1011.1 1010.6 0.2
05/09:30pm 23.2 23.9 13.4 54 5.7 E 2 7 1 4 1010.3 1009.8 0.2
05/09:00pm 23.4 22.5 13.8 54 5.7 SW 11 20 6 11 1009.9 1009.4 0.2
05/08:30pm 24.7 24.9 13.0 48 6.8 SSW 4 7 2 4 1009.7 1009.2 0.2
05/08:00pm 25.0 24.7 13.2 48 6.9 SSW 7 13 4 7 1009.1 1008.6 0.2
05/07:30pm 25.7 23.4 12.9 45 7.5 WSW 17 24 9 13 1008.8 1008.3 0.2
05/07:00pm 26.3 23.3 12.7 43 8.0 SW 20 30 11 16 1008.6 1008.1 0.2
05/06:30pm 27.1 24.2 14.1 44 7.8 SW 22 32 12 17 1008.4 1007.9 0.2
05/06:00pm 28.3 26.2 15.2 44 8.0 SW 20 28 11 15 1008.0 1007.5 0.2
05/05:30pm 29.5 28.0 15.2 41 8.8 W 17 28 9 15 1008.0 1007.5 0.2
05/05:00pm 29.7 27.8 15.8 43 8.7 WSW 20 30 11 16 1008.3 1007.8 0.2
05/04:30pm 29.9 28.1 15.6 42 8.9 SW 19 32 10 17 1007.9 1007.4 0.2
05/04:00pm 30.3 29.1 17.0 44 8.5 WSW 19 28 10 15 1008.3 1007.8 0.2
05/03:30pm 29.0 27.6 16.9 48 7.6 WSW 20 28 11 15 1008.6 1008.1 0.2
05/03:00pm 29.3 28.1 17.5 49 7.5 SW 20 32 11 17 1008.3 1007.8 0.2
05/02:30pm 29.6 28.3 16.8 46 8.1 W 19 26 10 14 1008.4 1007.9 0.2
05/02:00pm 29.7 28.5 16.1 43 8.5 WSW 17 24 9 13 1008.4 1007.9 0.2
05/01:30pm 29.5 28.7 16.0 44 8.4 WNW 15 26 8 14 1008.6 1008.1 0.2
05/01:00pm 28.6 27.9 15.5 45 8.1 W 13 22 7 12 1008.8 1008.3 0.2
05/12:30pm 28.3 28.1 15.6 46 7.8 SW 11 19 6 10 1008.6 1008.1 0.2
05/12:00pm 28.1 28.3 15.7 46 7.7 WNW 9 22 5 12 1008.7 1008.2 0.2
05/11:30am 28.5 29.1 16.7 48 7.4 WNW 9 19 5 10 1008.9 1008.4 0.2
05/11:00am 26.5 26.4 17.0 56 6.0 WSW 13 17 7 9 1008.9 1008.4 0.2
05/10:30am 26.7 25.5 17.5 57 5.8 WSW 20 28 11 15 1009.3 1008.8 0.2
05/10:00am 25.8 26.0 18.5 64 4.7 SW 15 26 8 14 1009.3 1008.8 0.2
05/09:30am 24.7 26.1 17.4 64 4.6 WSW 6 9 3 5 1009.2 1008.7 0.0
05/09:00am 24.2 26.5 17.7 67 4.1 SSE 2 6 1 3 1009.0 1008.5 2.2
05/08:30am 22.1 24.8 17.7 76 2.7 CALM 0 0 0 0 1008.9 1008.4 2.2
05/08:00am 21.0 23.6 18.4 85 1.6 SW 2 6 1 3 1008.7 1008.2 2.2
05/07:30am 19.9 22.7 17.9 88 1.2 CALM 0 0 0 0 1008.8 1008.3 2.2
05/07:00am 18.8 21.8 18.5 98 0.2 CALM 0 0 0 0 1008.3 1007.8 2.2
05/06:37am 18.3 21.2 18.1 99 0.1 CALM 0 0 0 0 1008.1 1007.6 2.2
05/06:30am 18.2 21.0 18.0 99 0.1 CALM 0 0 0 0 1008.0 1007.5 2.2
05/06:21am 18.0 20.7 17.7 98 0.2 CALM 0 0 0 0 1007.8 1007.3 2.2
05/06:00am 18.0 19.6 17.8 99 0.1 SSW 6 7 3 4 1007.9 1007.4 2.2
05/05:30am 17.9 19.4 17.7 99 0.1 SSW 6 11 3 6 1007.5 1007.0 2.2
05/05:00am 17.9 20.5 17.4 97 0.3 CALM 0 0 0 0 1007.2 1006.7 2.2
05/04:30am 18.4 21.2 17.9 97 0.3 CALM 0 0 0 0 1007.0 1006.5 2.2
05/04:00am 18.7 20.5 18.2 97 0.3 SSW 6 9 3 5 1007.0 1006.5 2.2
05/03:30am 18.6 20.2 18.3 98 0.2 SSW 7 11 4 6 1006.9 1006.4 2.2
05/03:00am 18.8 20.3 18.1 96 0.4 S 7 11 4 6 1006.9 1006.4 2.2
05/02:30am 18.9 20.2 18.4 97 0.3 SW 9 11 5 6 1007.5 1007.0 2.2
05/02:00am 19.0 20.2 18.3 96 0.4 SSW 9 11 5 6 1007.4 1006.9 2.2
05/01:30am 19.1 20.9 18.4 96 0.4 S 6 9 3 5 1007.9 1007.4 2.2
05/01:00am 19.2 20.8 18.2 94 0.6 ENE 7 9 4 5 1009.1 1008.6 2.2
05/12:30am 19.2 20.4 18.2 94 0.6 ENE 9 13 5 7 1009.7 1009.2 2.2
05/12:00am 19.4 21.0 17.9 91 0.9 SE 6 9 3 5 1010.4 1009.9 1.6
 
Date/Time
EDT
Temp
°C
App
Temp
°C
Dew
Point
°C
Rel
Hum
%
Delta-T
°C
Wind Press
QNH
hPa
Press
MSL
hPa
Rain since
9am
mm
Dir  Spd
km/h
Gust
km/h
Spd
kts
Gust
kts
04/11:30pm 19.6 20.5 17.6 88 1.2 S 9 13 5 7 1010.5 1010.0 1.0
04/11:00pm 20.2 20.2 17.2 83 1.8 S 13 19 7 10 1010.6 1010.1 1.0
04/10:30pm 20.6 21.3 17.0 80 2.2 SSE 9 15 5 8 1009.9 1009.4 1.0
04/10:00pm 20.6 21.4 17.2 81 2.1 SSE 9 13 5 7 1010.1 1009.6 1.0
04/09:30pm 20.6 20.5 17.0 80 2.2 SSE 13 20 7 11 1009.8 1009.3 1.0
04/09:00pm 21.0 20.5 17.0 78 2.5 SSE 15 20 8 11 1009.5 1009.0 1.0
04/08:30pm 20.9 19.7 17.1 79 2.3 SE 19 26 10 14 1009.0 1008.5 1.0
04/08:00pm 21.3 20.1 17.1 77 2.6 SSE 19 26 10 14 1009.4 1008.9 0.8
04/07:30pm 21.9 20.8 17.3 75 2.8 SSE 19 24 10 13 1009.1 1008.6 0.8
04/07:00pm 22.1 22.7 17.7 76 2.7 S 11 13 6 7 1009.7 1009.2 0.8
04/06:30pm 23.0 22.6 17.2 70 3.6 SSE 15 17 8 9 1009.0 1008.5 0.6
04/06:00pm 24.5 25.4 16.0 59 5.2 NW 6 9 3 5 1009.3 1008.8 0.2
04/05:35pm 24.3 20.5 15.8 59 5.2 NW 30 48 16 26 1009.4 1008.9 0.2
04/05:30pm 24.3 19.0 15.2 57 5.5 NW 37 48 20 26 1009.3 1008.8 0.0
04/05:28pm 25.1 19.2 14.6 52 6.3 NW 39 65 21 35 1009.1 1008.6 0.0
04/05:20pm 30.2 24.6 10.2 29 11.4 NNW 30 65 16 35 1007.9 1007.4 0.0
04/05:00pm 31.7 27.5 7.4 22 13.4 NNW 19 26 10 14 1007.5 1007.0 0.0
04/04:30pm 33.1 28.1 6.4 19 14.6 N 22 32 12 17 1007.4 1006.9 0.0
04/04:00pm 33.7 29.2 4.4 16 15.5 N 17 24 9 13 1007.8 1007.3 0.0
04/03:30pm 33.4 28.2 3.3 15 15.6 N 20 35 11 19 1008.1 1007.6 0.0
04/03:00pm 34.2 28.7 3.9 15 16.0 N 22 35 12 19 1008.5 1008.0 0.0
04/02:30pm 34.3 28.2 4.9 16 15.7 N 26 35 14 19 1009.1 1008.6 0.0
04/02:00pm 33.5 27.3 4.2 16 15.5 N 26 35 14 19 1009.6 1009.1 0.0
04/01:30pm 34.1 30.8 6.4 18 15.2 NNE 13 24 7 13 1010.0 1009.5 0.0
04/01:00pm 32.1 28.3 5.6 19 14.2 N 15 20 8 11 1010.7 1010.2 0.0
04/12:30pm 31.8 28.6 6.8 21 13.6 N 13 24 7 13 1011.0 1010.5 0.0
04/12:00pm 30.1 28.0 6.7 23 12.6 NNE 7 13 4 7 1011.2 1010.7 0.0
04/11:30am 29.0 26.5 6.4 24 12.1 ENE 9 19 5 10 1011.1 1010.6 0.0
04/11:00am 27.7 25.6 6.5 26 11.2 NE 7 13 4 7 1011.8 1011.3 0.0
04/10:30am 26.8 25.4 5.7 26 11.0 ENE 2 9 1 5 1012.5 1012.0 0.0
04/10:00am 24.7 23.4 6.0 30 9.7 SSW 2 6 1 3 1012.8 1012.3 0.0
04/09:30am 24.0 22.8 6.3 32 9.1 ESE 2 11 1 6 1012.7 1012.2 0.0
04/09:00am 21.7 20.0 6.0 36 8.0 SSE 4 9 2 5 1012.9 1012.4 0.0
04/08:30am 20.1 18.1 6.1 40 7.0 SE 6 11 3 6 1012.9 1012.4 0.0
04/08:00am 17.4 15.3 6.6 49 5.4 SSW 7 11 4 6 1012.9 1012.4 0.0
04/07:30am 15.9 13.8 6.6 54 4.6 S 7 11 4 6 1012.8 1012.3 0.0
04/07:00am 13.5 13.2 8.8 73 2.4 CALM 0 6 0 3 1012.9 1012.4 0.0

Other Formats:

Comma delimited format used in spreadsheet applications
http://www.bom.gov.au/fwo/IDV60801/IDV60801.94889.axf

JavaScript Object Notation format (JSON) in row-major order
http://www.bom.gov.au/fwo/IDV60801/IDV60801.94889.json